< < Back
Terminal Aerodrome Forecast


Current Version              Previous Versions:   1  2  3  4  5  6  7  8  9  

Terminal Aerodrome Forecast

428
FTUS42 KJAX 231100
TAFSSI
TAF
KSSI 231120Z 2312/2412 10012KT 3SM -RA VCTS BKN015CB OVC040
      WS020/15040KT
      TEMPO 2312/2313 2SM RA BKN006 OVC015
     FM231500 14014G22KT P6SM VCSH SCT025 BKN035
     FM231900 17015G25KT P6SM VCTS BKN035CB
     FM240100 18012KT P6SM VCSH SCT035 BKN050=

Latest METAR

846
SAUS70 KWBC 231300 RRO
MTRSSI
METAR KSSI 231253Z AUTO 09003KT 1SM RA BR FEW002 BKN007 OVC014 18/18
A3004 RMK AO2 SLP171 P0039 T01830183


USA.gov is the U.S. government's official web portal to all federal, state and local government web resources and services.